Time,TemperatureF,DewpointF,PressureIn,WindDirection,WindDirectionDegrees,WindSpeedMPH,WindSpeedGustMPH,Humidity,HourlyPrecipIn,Conditions,Clouds,dailyrainin,SoftwareType,DateUTC
2013-11-08 00:01:00,31.5,29.5,30.28,WSW,238,2.0,5.0,92,0.00,,,0.00,meteohub,2013-11-08 06:01:00,
2013-11-08 00:06:00,31.5,29.5,30.28,WSW,252,2.0,6.0,92,0.00,,,0.00,meteohub,2013-11-08 06:06:00,
2013-11-08 00:11:00,31.6,29.7,30.28,WSW,250,5.0,6.0,92,0.00,,,0.00,meteohub,2013-11-08 06:11:00,
2013-11-08 00:16:00,31.6,29.3,30.28,WSW,244,2.0,6.0,91,0.00,,,0.00,meteohub,2013-11-08 06:16:00,
2013-11-08 00:21:00,31.6,29.7,30.28,SW,229,4.0,6.0,92,0.00,,,0.00,meteohub,2013-11-08 06:21:00,
2013-11-08 00:26:00,31.6,29.3,30.28,WSW,248,4.0,6.0,91,0.00,,,0.00,meteohub,2013-11-08 06:26:00,
2013-11-08 00:31:00,31.6,29.3,30.28,WSW,248,2.0,6.0,91,0.00,,,0.00,meteohub,2013-11-08 06:31:00,
2013-11-08 00:36:00,31.6,29.3,30.28,WSW,249,2.0,6.0,91,0.00,,,0.00,meteohub,2013-11-08 06:36:00,
2013-11-08 00:41:00,31.6,29.3,30.29,WSW,249,2.0,6.0,91,0.00,,,0.00,meteohub,2013-11-08 06:41:00,
2013-11-08 00:46:00,31.6,29.3,30.29,WSW,249,4.0,6.0,91,0.00,,,0.00,meteohub,2013-11-08 06:46:00,
2013-11-08 00:51:00,31.6,29.3,30.29,WSW,249,4.0,5.0,91,0.00,,,0.00,meteohub,2013-11-08 06:51:00,
2013-11-08 00:57:00,31.8,29.5,30.29,WSW,249,0.0,6.0,91,0.00,,,0.00,meteohub,2013-11-08 06:57:00,
2013-11-08 01:02:00,31.6,29.3,30.29,WSW,249,1.0,6.0,91,0.00,,,0.00,meteohub,2013-11-08 07:02:00,
2013-11-08 01:07:00,31.5,29.1,30.29,WSW,249,0.0,5.0,91,0.00,,,0.00,meteohub,2013-11-08 07:07:00,
2013-11-08 01:12:00,31.5,29.1,30.29,WSW,249,2.0,4.0,91,0.00,,,0.00,meteohub,2013-11-08 07:12:00,
2013-11-08 01:17:00,31.6,29.3,30.29,WSW,257,1.0,4.0,91,0.00,,,0.00,meteohub,2013-11-08 07:17:00,
2013-11-08 01:22:00,32.0,29.7,30.30,WNW,296,3.0,4.0,91,0.00,,,0.00,meteohub,2013-11-08 07:22:00,
2013-11-08 01:27:00,32.0,29.7,30.29,WNW,288,4.0,6.0,91,0.00,,,0.00,meteohub,2013-11-08 07:27:00,
2013-11-08 01:32:00,32.2,29.8,30.29,NW,307,0.0,6.0,91,0.00,,,0.00,meteohub,2013-11-08 07:32:00,
2013-11-08 01:37:00,32.4,30.0,30.29,NW,305,0.0,6.0,91,0.00,,,0.00,meteohub,2013-11-08 07:37:00,
2013-11-08 01:42:00,32.4,29.8,30.30,WNW,290,0.0,6.0,90,0.00,,,0.00,meteohub,2013-11-08 07:42:00,
2013-11-08 01:47:00,32.4,29.8,30.30,WNW,290,0.0,6.0,90,0.00,,,0.00,meteohub,2013-11-08 07:47:00,
2013-11-08 01:52:00,32.2,29.7,30.30,WNW,290,0.0,4.0,90,0.00,,,0.00,meteohub,2013-11-08 07:52:00,
2013-11-08 01:57:00,32.2,29.7,30.30,West,275,2.0,4.0,90,0.00,,,0.00,meteohub,2013-11-08 07:57:00,
2013-11-08 02:02:00,32.4,29.8,30.30,West,275,0.0,4.0,90,0.00,,,0.00,meteohub,2013-11-08 08:02:00,
2013-11-08 02:07:00,32.4,29.8,30.30,West,275,0.0,4.0,90,0.00,,,0.00,meteohub,2013-11-08 08:07:00,
2013-11-08 02:12:00,32.4,29.5,30.30,West,275,0.0,4.0,89,0.00,,,0.00,meteohub,2013-11-08 08:12:00,
2013-11-08 02:17:00,32.4,29.5,30.30,West,275,1.0,4.0,89,0.00,,,0.00,meteohub,2013-11-08 08:17:00,
2013-11-08 02:22:00,32.4,29.5,30.30,WSW,252,1.0,2.0,89,0.00,,,0.00,meteohub,2013-11-08 08:22:00,
2013-11-08 02:27:00,32.4,29.5,30.30,West,261,2.0,5.0,89,0.00,,,0.00,meteohub,2013-11-08 08:27:00,
2013-11-08 02:32:00,32.4,29.5,30.30,West,261,0.0,5.0,89,0.00,,,0.00,meteohub,2013-11-08 08:32:00,
2013-11-08 02:37:00,32.0,29.1,30.30,West,261,1.0,5.0,89,0.00,,,0.00,meteohub,2013-11-08 08:37:00,
2013-11-08 02:42:00,32.0,29.1,30.30,West,261,0.0,2.0,89,0.00,,,0.00,meteohub,2013-11-08 08:42:00,
2013-11-08 02:47:00,31.8,28.9,30.30,West,261,1.0,2.0,89,0.00,,,0.00,meteohub,2013-11-08 08:47:00,
2013-11-08 02:52:00,31.6,28.8,30.30,West,261,0.0,2.0,89,0.00,,,0.00,meteohub,2013-11-08 08:52:00,
2013-11-08 02:57:00,31.5,28.6,30.31,West,261,0.0,2.0,89,0.00,,,0.00,meteohub,2013-11-08 08:57:00,
2013-11-08 03:02:00,31.5,28.9,30.31,WSW,244,0.0,2.0,90,0.00,,,0.00,meteohub,2013-11-08 09:02:00,
2013-11-08 03:07:00,31.6,29.1,30.31,WSW,244,1.0,3.0,90,0.00,,,0.00,meteohub,2013-11-08 09:07:00,
2013-11-08 03:12:00,31.8,29.3,30.31,WSW,245,0.0,3.0,90,0.00,,,0.00,meteohub,2013-11-08 09:12:00,
2013-11-08 03:17:00,31.6,28.8,30.31,WSW,255,0.0,3.0,89,0.00,,,0.00,meteohub,2013-11-08 09:17:00,
2013-11-08 03:22:00,31.6,28.8,30.31,WSW,255,0.0,3.0,89,0.00,,,0.00,meteohub,2013-11-08 09:22:00,
2013-11-08 03:27:00,31.5,28.6,30.31,WSW,255,0.0,3.0,89,0.00,,,0.00,meteohub,2013-11-08 09:27:00,
2013-11-08 03:32:00,31.5,28.6,30.31,WSW,258,1.0,3.0,89,0.00,,,0.00,meteohub,2013-11-08 09:32:00,
2013-11-08 03:37:00,31.5,28.9,30.31,NW,309,1.0,5.0,90,0.00,,,0.00,meteohub,2013-11-08 09:37:00,
2013-11-08 03:42:00,31.5,28.9,30.31,NW,309,1.0,5.0,90,0.00,,,0.00,meteohub,2013-11-08 09:42:00,
2013-11-08 03:47:00,31.5,28.9,30.32,NW,309,0.0,5.0,90,0.00,,,0.00,meteohub,2013-11-08 09:47:00,
2013-11-08 03:52:00,31.3,28.8,30.32,NW,309,0.0,5.0,90,0.00,,,0.00,meteohub,2013-11-08 09:52:00,
2013-11-08 03:57:00,31.5,28.9,30.32,WNW,292,2.0,5.0,90,0.00,,,0.00,meteohub,2013-11-08 09:57:00,
2013-11-08 04:02:00,31.5,28.9,30.32,WSW,238,2.0,5.0,90,0.00,,,0.00,meteohub,2013-11-08 10:02:00,
2013-11-08 04:07:00,31.6,29.1,30.32,WSW,248,2.0,5.0,90,0.00,,,0.00,meteohub,2013-11-08 10:07:00,
2013-11-08 04:12:00,31.5,28.9,30.32,WSW,248,0.0,4.0,90,0.00,,,0.00,meteohub,2013-11-08 10:12:00,
2013-11-08 04:17:00,31.5,28.9,30.32,WSW,242,0.0,4.0,90,0.00,,,0.00,meteohub,2013-11-08 10:17:00,
2013-11-08 04:22:00,31.5,28.9,30.32,WSW,242,1.0,4.0,90,0.00,,,0.00,meteohub,2013-11-08 10:22:00,
2013-11-08 04:27:00,31.5,28.9,30.32,WSW,242,0.0,4.0,90,0.00,,,0.00,meteohub,2013-11-08 10:27:00,
2013-11-08 04:32:00,31.3,28.8,30.32,WSW,242,0.0,4.0,90,0.00,,,0.00,meteohub,2013-11-08 10:32:00,
2013-11-08 04:37:00,31.1,28.6,30.32,WSW,242,1.0,4.0,90,0.00,,,0.00,meteohub,2013-11-08 10:37:00,
2013-11-08 04:42:00,31.1,28.6,30.33,WSW,247,1.0,3.0,90,0.00,,,0.00,meteohub,2013-11-08 10:42:00,
2013-11-08 04:47:00,31.3,28.8,30.33,WSW,247,2.0,4.0,90,0.00,,,0.00,meteohub,2013-11-08 10:47:00,
2013-11-08 04:52:00,31.3,28.8,30.33,WSW,247,1.0,4.0,90,0.00,,,0.00,meteohub,2013-11-08 10:52:00,
2013-11-08 04:57:00,31.3,28.9,30.32,WSW,247,1.0,4.0,91,0.00,,,0.00,meteohub,2013-11-08 10:57:00,
2013-11-08 05:02:00,31.3,28.8,30.32,WSW,247,1.0,4.0,90,0.00,,,0.00,meteohub,2013-11-08 11:02:00,
2013-11-08 05:07:00,31.1,28.6,30.33,WSW,247,0.0,3.0,90,0.00,,,0.00,meteohub,2013-11-08 11:07:00,
2013-11-08 05:12:00,31.1,28.6,30.33,WSW,247,1.0,3.0,90,0.00,,,0.00,meteohub,2013-11-08 11:12:00,
2013-11-08 05:17:00,31.3,28.8,30.33,WSW,247,1.0,4.0,90,0.00,,,0.00,meteohub,2013-11-08 11:17:00,
2013-11-08 05:22:00,31.1,28.6,30.33,WSW,247,0.0,4.0,90,0.00,,,0.00,meteohub,2013-11-08 11:22:00,
2013-11-08 05:27:00,31.1,28.6,30.33,WSW,247,0.0,4.0,90,0.00,,,0.00,meteohub,2013-11-08 11:27:00,
2013-11-08 05:32:00,30.9,28.4,30.33,WSW,247,0.0,3.0,90,0.00,,,0.00,meteohub,2013-11-08 11:32:00,
2013-11-08 05:37:00,30.7,28.2,30.33,WSW,247,2.0,2.0,90,0.00,,,0.00,meteohub,2013-11-08 11:37:00,
2013-11-08 05:42:00,30.6,28.0,30.33,WSW,247,0.0,4.0,90,0.00,,,0.00,meteohub,2013-11-08 11:42:00,
2013-11-08 05:47:00,30.4,27.9,30.33,WSW,247,0.0,4.0,90,0.00,,,0.00,meteohub,2013-11-08 11:47:00,
2013-11-08 05:52:00,30.2,27.7,30.33,WSW,247,0.0,4.0,90,0.00,,,0.00,meteohub,2013-11-08 11:52:00,
2013-11-08 05:57:00,30.0,27.5,30.34,WSW,247,0.0,2.0,90,0.00,,,0.00,meteohub,2013-11-08 11:57:00,
2013-11-08 06:02:00,29.8,27.3,30.34,WSW,247,0.0,0.0,90,0.00,,,0.00,meteohub,2013-11-08 12:02:00,
2013-11-08 06:07:00,29.8,27.5,30.34,WSW,247,0.0,0.0,91,0.00,,,0.00,meteohub,2013-11-08 12:07:00,
2013-11-08 06:12:00,29.8,27.5,30.34,WSW,247,1.0,1.0,91,0.00,,,0.00,meteohub,2013-11-08 12:12:00,
2013-11-08 06:17:00,29.8,27.5,30.35,WSW,247,1.0,2.0,91,0.00,,,0.00,meteohub,2013-11-08 12:17:00,
2013-11-08 06:22:00,30.0,27.7,30.35,WSW,247,0.0,4.0,91,0.00,,,0.00,meteohub,2013-11-08 12:22:00,
2013-11-08 06:27:00,30.0,27.7,30.35,WSW,247,1.0,4.0,91,0.00,,,0.00,meteohub,2013-11-08 12:27:00,
2013-11-08 06:32:00,30.0,27.7,30.35,WSW,247,2.0,4.0,91,0.00,,,0.00,meteohub,2013-11-08 12:32:00,
2013-11-08 06:37:00,30.0,27.7,30.35,WSW,247,1.0,4.0,91,0.00,,,0.00,meteohub,2013-11-08 12:37:00,
2013-11-08 06:42:00,29.8,27.5,30.35,WSW,247,0.0,2.0,91,0.00,,,0.00,meteohub,2013-11-08 12:42:00,
2013-11-08 06:47:00,29.8,27.5,30.35,WSW,247,0.0,2.0,91,0.00,,,0.00,meteohub,2013-11-08 12:47:00,
2013-11-08 06:52:00,29.8,27.5,30.35,WSW,247,0.0,1.0,91,0.00,,,0.00,meteohub,2013-11-08 12:52:00,
2013-11-08 06:57:00,29.8,27.9,30.35,WSW,247,0.0,0.0,92,0.00,,,0.00,meteohub,2013-11-08 12:57:00,
2013-11-08 07:02:00,30.0,28.0,30.35,WSW,247,0.0,0.0,92,0.00,,,0.00,meteohub,2013-11-08 13:02:00,
2013-11-08 07:07:00,30.4,28.4,30.35,WSW,247,0.0,0.0,92,0.00,,,0.00,meteohub,2013-11-08 13:07:00,
2013-11-08 07:12:00,30.7,28.8,30.36,WSW,247,0.0,0.0,92,0.00,,,0.00,meteohub,2013-11-08 13:12:00,
2013-11-08 07:17:00,31.1,29.1,30.36,WSW,247,0.0,1.0,92,0.00,,,0.00,meteohub,2013-11-08 13:17:00,
2013-11-08 07:22:00,31.5,29.5,30.36,WSW,248,0.0,2.0,92,0.00,,,0.00,meteohub,2013-11-08 13:22:00,
2013-11-08 07:27:00,31.8,29.5,30.37,WSW,248,1.0,5.0,91,0.00,,,0.00,meteohub,2013-11-08 13:27:00,
2013-11-08 07:32:00,32.0,29.7,30.37,WSW,248,0.0,5.0,91,0.00,,,0.00,meteohub,2013-11-08 13:32:00,
2013-11-08 07:37:00,32.4,30.0,30.37,WSW,248,0.0,5.0,91,0.00,,,0.00,meteohub,2013-11-08 13:37:00,
2013-11-08 07:42:00,32.5,30.0,30.37,WSW,248,0.0,4.0,90,0.01,,,0.01,meteohub,2013-11-08 13:42:00,
2013-11-08 07:47:00,32.9,30.0,30.37,WSW,248,0.0,1.0,89,0.01,,,0.01,meteohub,2013-11-08 13:47:00,
2013-11-08 07:52:00,33.1,30.2,30.38,WSW,248,0.0,2.0,89,0.01,,,0.01,meteohub,2013-11-08 13:52:00,
2013-11-08 07:57:00,33.4,30.6,30.37,WSW,248,0.0,2.0,89,0.01,,,0.01,meteohub,2013-11-08 13:57:00,
2013-11-08 08:02:00,34.0,31.1,30.37,WSW,248,0.0,2.0,89,0.01,,,0.01,meteohub,2013-11-08 14:02:00,
2013-11-08 08:07:00,34.3,31.1,30.37,WSW,248,0.0,2.0,88,0.01,,,0.01,meteohub,2013-11-08 14:07:00,
2013-11-08 08:12:00,34.9,31.6,30.37,WSW,248,0.0,1.0,88,0.01,,,0.01,meteohub,2013-11-08 14:12:00,
2013-11-08 08:17:00,35.2,32.0,30.38,WSW,248,0.0,1.0,88,0.01,,,0.01,meteohub,2013-11-08 14:17:00,
2013-11-08 08:22:00,36.1,32.7,30.37,WSW,248,0.0,0.0,87,0.01,,,0.01,meteohub,2013-11-08 14:22:00,
2013-11-08 08:27:00,36.7,32.5,30.37,WSW,248,0.0,0.0,85,0.01,,,0.01,meteohub,2013-11-08 14:27:00,
2013-11-08 08:32:00,37.0,32.4,30.37,WSW,248,0.0,0.0,83,0.01,,,0.01,meteohub,2013-11-08 14:32:00,
2013-11-08 08:37:00,37.4,32.2,30.37,NNW,348,0.0,0.0,81,0.01,,,0.01,meteohub,2013-11-08 14:37:00,
2013-11-08 08:42:00,37.4,31.8,30.37,NNW,348,0.0,4.0,80,0.00,,,0.01,meteohub,2013-11-08 14:42:00,
2013-11-08 08:47:00,37.8,32.5,30.37,NNW,348,0.0,4.0,81,0.00,,,0.01,meteohub,2013-11-08 14:47:00,
2013-11-08 08:52:00,38.1,32.2,30.37,NNW,348,0.0,4.0,79,0.00,,,0.01,meteohub,2013-11-08 14:52:00,
2013-11-08 08:58:00,38.7,32.4,30.37,NW,315,1.0,2.0,78,0.00,,,0.01,meteohub,2013-11-08 14:58:00,
2013-11-08 09:03:00,39.0,33.1,30.37,NW,315,0.0,2.0,79,0.00,,,0.01,meteohub,2013-11-08 15:03:00,
2013-11-08 09:08:00,39.6,32.4,30.37,NW,312,0.0,2.0,75,0.00,,,0.01,meteohub,2013-11-08 15:08:00,
2013-11-08 09:13:00,39.9,32.4,30.37,SW,227,0.0,2.0,74,0.00,,,0.01,meteohub,2013-11-08 15:13:00,
2013-11-08 09:18:00,40.5,32.9,30.37,SW,229,0.0,2.0,74,0.00,,,0.01,meteohub,2013-11-08 15:18:00,
2013-11-08 09:23:00,41.2,33.3,30.37,South,178,0.0,2.0,73,0.00,,,0.01,meteohub,2013-11-08 15:23:00,
2013-11-08 09:28:00,41.7,32.7,30.37,SW,219,1.0,3.0,70,0.00,,,0.01,meteohub,2013-11-08 15:28:00,
2013-11-08 09:33:00,41.7,32.4,30.37,SW,219,3.0,3.0,69,0.00,,,0.01,meteohub,2013-11-08 15:33:00,
2013-11-08 09:38:00,41.7,32.4,30.37,SW,219,0.0,4.0,69,0.00,,,0.01,meteohub,2013-11-08 15:38:00,
2013-11-08 09:44:00,42.3,32.5,30.37,SW,218,0.0,4.0,68,0.00,,,0.01,meteohub,2013-11-08 15:44:00,
2013-11-08 09:49:00,43.0,32.7,30.37,SW,218,0.0,4.0,67,0.00,,,0.01,meteohub,2013-11-08 15:49:00,
2013-11-08 09:54:00,43.7,32.4,30.37,SW,219,1.0,4.0,64,0.00,,,0.01,meteohub,2013-11-08 15:54:00,
2013-11-08 09:59:00,44.4,31.5,30.37,SW,219,1.0,2.0,60,0.00,,,0.01,meteohub,2013-11-08 15:59:00,
2013-11-08 10:04:00,44.8,30.9,30.36,SW,219,0.0,2.0,58,0.00,,,0.01,meteohub,2013-11-08 16:04:00,
2013-11-08 10:09:00,45.0,32.7,30.36,ESE,109,2.0,2.0,62,0.00,,,0.01,meteohub,2013-11-08 16:09:00,
2013-11-08 10:15:00,45.1,32.9,30.36,SSW,192,0.0,2.0,62,0.00,,,0.01,meteohub,2013-11-08 16:15:00,
2013-11-08 10:20:00,45.0,32.7,30.36,SSW,192,0.0,7.0,62,0.00,,,0.01,meteohub,2013-11-08 16:20:00,
2013-11-08 10:25:00,45.3,32.2,30.36,SSW,205,0.0,7.0,60,0.00,,,0.01,meteohub,2013-11-08 16:25:00,
2013-11-08 10:30:00,45.7,31.3,30.36,SSW,211,5.0,7.0,57,0.00,,,0.01,meteohub,2013-11-08 16:30:00,
2013-11-08 10:35:00,46.2,31.8,30.36,South,180,5.0,5.0,57,0.00,,,0.01,meteohub,2013-11-08 16:35:00,
2013-11-08 10:40:00,46.6,32.5,30.36,SSW,198,5.0,6.0,58,0.00,,,0.01,meteohub,2013-11-08 16:40:00,
2013-11-08 10:46:00,46.6,32.2,30.36,SSE,163,1.0,6.0,57,0.00,,,0.01,meteohub,2013-11-08 16:46:00,
2013-11-08 10:51:00,46.8,31.8,30.35,SW,229,5.0,6.0,56,0.00,,,0.01,meteohub,2013-11-08 16:51:00,
2013-11-08 10:56:00,46.9,29.8,30.35,SW,215,2.0,7.0,51,0.00,,,0.01,meteohub,2013-11-08 16:56:00,
2013-11-08 11:01:00,47.3,30.0,30.35,SW,229,2.0,7.0,51,0.00,,,0.01,meteohub,2013-11-08 17:01:00,
2013-11-08 11:06:00,47.7,30.0,30.35,SW,224,0.0,7.0,50,0.00,,,0.01,meteohub,2013-11-08 17:06:00,
2013-11-08 11:11:00,48.0,29.3,30.34,NW,313,0.0,7.0,48,0.00,,,0.01,meteohub,2013-11-08 17:11:00,
2013-11-08 11:16:00,48.4,30.0,30.34,WSW,238,5.0,7.0,49,0.00,,,0.01,meteohub,2013-11-08 17:16:00,
2013-11-08 11:21:00,48.7,30.4,30.34,SW,234,3.0,7.0,49,0.00,,,0.01,meteohub,2013-11-08 17:21:00,
2013-11-08 11:27:00,48.9,29.7,30.33,WSW,254,8.0,8.0,47,0.00,,,0.01,meteohub,2013-11-08 17:27:00,
2013-11-08 11:32:00,48.9,29.1,30.33,WNW,302,2.0,10.0,46,0.00,,,0.01,meteohub,2013-11-08 17:32:00,
2013-11-08 11:37:00,48.9,29.7,30.32,NE,44,1.0,10.0,47,0.00,,,0.01,meteohub,2013-11-08 17:37:00,
2013-11-08 11:42:00,49.3,29.8,30.32,WSW,241,4.0,10.0,47,0.00,,,0.01,meteohub,2013-11-08 17:42:00,
2013-11-08 11:47:00,50.0,30.6,30.32,NW,322,1.0,6.0,47,0.00,,,0.01,meteohub,2013-11-08 17:47:00,
2013-11-08 11:52:00,50.4,29.8,30.32,SSW,213,2.0,6.0,45,0.00,,,0.01,meteohub,2013-11-08 17:52:00,
2013-11-08 11:57:00,50.4,29.3,30.32,SSW,213,2.0,6.0,44,0.00,,,0.01,meteohub,2013-11-08 17:57:00,
2013-11-08 12:02:00,50.9,29.8,30.31,NNW,333,0.0,10.0,44,0.00,,,0.01,meteohub,2013-11-08 18:02:00,
2013-11-08 12:07:00,50.7,29.7,30.31,SW,215,4.0,10.0,44,0.00,,,0.01,meteohub,2013-11-08 18:07:00,
2013-11-08 12:12:00,51.3,30.0,30.31,SW,224,7.0,10.0,44,0.00,,,0.01,meteohub,2013-11-08 18:12:00,
2013-11-08 12:17:00,51.1,28.8,30.31,NW,309,1.0,9.0,42,0.00,,,0.01,meteohub,2013-11-08 18:17:00,
2013-11-08 12:22:00,51.1,30.6,30.30,SW,225,7.0,9.0,45,0.00,,,0.01,meteohub,2013-11-08 18:22:00,
2013-11-08 12:27:00,50.7,29.7,30.30,SW,217,4.0,10.0,44,0.00,,,0.01,meteohub,2013-11-08 18:27:00,
2013-11-08 12:32:00,50.5,29.5,30.30,SW,215,2.0,10.0,44,0.00,,,0.01,meteohub,2013-11-08 18:32:00,
2013-11-08 12:37:00,50.7,29.1,30.29,SSW,208,0.0,10.0,43,0.00,,,0.01,meteohub,2013-11-08 18:37:00,
2013-11-08 12:42:00,51.1,28.8,30.28,SSW,209,4.0,7.0,42,0.00,,,0.01,meteohub,2013-11-08 18:42:00,
2013-11-08 12:47:00,50.9,29.1,30.28,SSW,192,6.0,8.0,43,0.00,,,0.01,meteohub,2013-11-08 18:47:00,
2013-11-08 12:52:00,50.7,29.7,30.28,SW,223,4.0,8.0,44,0.00,,,0.01,meteohub,2013-11-08 18:52:00,
2013-11-08 12:58:00,51.4,30.7,30.28,West,268,6.0,8.0,45,0.00,,,0.01,meteohub,2013-11-08 18:58:00,
2013-11-08 13:03:00,52.2,30.4,30.28,SSW,194,5.0,9.0,43,0.00,,,0.01,meteohub,2013-11-08 19:03:00,
2013-11-08 13:08:00,52.0,30.2,30.27,SW,219,7.0,9.0,43,0.00,,,0.01,meteohub,2013-11-08 19:08:00,
2013-11-08 13:13:00,51.3,30.6,30.27,SW,217,4.0,10.0,45,0.00,,,0.01,meteohub,2013-11-08 19:13:00,
2013-11-08 13:18:00,51.1,31.6,30.27,South,174,4.0,10.0,47,0.00,,,0.01,meteohub,2013-11-08 19:18:00,
2013-11-08 13:24:00,50.9,31.5,30.27,WSW,242,5.0,10.0,47,0.00,,,0.01,meteohub,2013-11-08 19:24:00,
2013-11-08 13:29:00,50.9,29.8,30.26,South,184,4.0,9.0,44,0.00,,,0.01,meteohub,2013-11-08 19:29:00,
2013-11-08 13:34:00,50.7,29.7,30.26,WSW,238,3.0,9.0,44,0.00,,,0.01,meteohub,2013-11-08 19:34:00,
2013-11-08 13:39:00,51.1,29.8,30.26,SW,229,6.0,8.0,44,0.00,,,0.01,meteohub,2013-11-08 19:39:00,
2013-11-08 13:44:00,51.1,28.8,30.25,WSW,258,0.0,8.0,42,0.00,,,0.01,meteohub,2013-11-08 19:44:00,
2013-11-08 13:49:00,51.3,28.9,30.26,SW,223,1.0,10.0,42,0.00,,,0.01,meteohub,2013-11-08 19:49:00,
2013-11-08 13:55:00,51.4,30.2,30.25,SW,225,5.0,10.0,44,0.00,,,0.01,meteohub,2013-11-08 19:55:00,
2013-11-08 14:00:00,51.8,30.6,30.26,SW,220,10.0,10.0,44,0.00,,,0.01,meteohub,2013-11-08 20:00:00,
2013-11-08 14:05:00,52.3,31.1,30.25,SSW,197,7.0,10.0,44,0.00,,,0.01,meteohub,2013-11-08 20:05:00,
2013-11-08 14:10:00,52.3,30.6,30.25,SSW,207,10.0,12.0,43,0.00,,,0.01,meteohub,2013-11-08 20:10:00,
2013-11-08 14:15:00,52.2,30.9,30.25,SW,228,6.0,12.0,44,0.00,,,0.01,meteohub,2013-11-08 20:15:00,
2013-11-08 14:20:00,52.0,30.2,30.25,South,186,5.0,12.0,43,0.00,,,0.01,meteohub,2013-11-08 20:20:00,
2013-11-08 14:25:00,51.6,29.8,30.25,SW,221,6.0,12.0,43,0.00,,,0.01,meteohub,2013-11-08 20:25:00,
2013-11-08 14:30:00,51.3,29.5,30.25,SSW,208,4.0,12.0,43,0.00,,,0.01,meteohub,2013-11-08 20:30:00,
2013-11-08 14:35:00,51.3,28.9,30.25,SSW,203,5.0,12.0,42,0.00,,,0.01,meteohub,2013-11-08 20:35:00,
2013-11-08 14:40:00,51.3,28.9,30.25,SSW,196,8.0,10.0,42,0.00,,,0.01,meteohub,2013-11-08 20:40:00,
2013-11-08 14:45:00,51.1,28.8,30.25,South,190,7.0,10.0,42,0.00,,,0.01,meteohub,2013-11-08 20:45:00,
2013-11-08 14:51:00,51.1,28.8,30.25,SW,222,4.0,10.0,42,0.00,,,0.01,meteohub,2013-11-08 20:51:00,
2013-11-08 14:56:00,51.1,28.8,30.25,SSW,203,4.0,10.0,42,0.00,,,0.01,meteohub,2013-11-08 20:56:00,
2013-11-08 15:01:00,51.3,29.5,30.25,WSW,239,6.0,10.0,43,0.00,,,0.01,meteohub,2013-11-08 21:01:00,
2013-11-08 15:06:00,51.4,29.7,30.25,WSW,247,6.0,9.0,43,0.00,,,0.01,meteohub,2013-11-08 21:06:00,
2013-11-08 15:11:00,51.3,30.0,30.25,SW,233,4.0,13.0,44,0.00,,,0.01,meteohub,2013-11-08 21:11:00,
2013-11-08 15:16:00,51.3,30.0,30.25,SSW,204,8.0,13.0,44,0.00,,,0.01,meteohub,2013-11-08 21:16:00,
2013-11-08 15:21:00,51.3,30.0,30.25,SSW,201,7.0,15.0,44,0.00,,,0.01,meteohub,2013-11-08 21:21:00,
2013-11-08 15:26:00,51.3,30.0,30.25,SSW,205,2.0,15.0,44,0.00,,,0.01,meteohub,2013-11-08 21:26:00,
2013-11-08 15:31:00,51.4,30.2,30.24,SSW,193,11.0,15.0,44,0.00,,,0.01,meteohub,2013-11-08 21:31:00,
2013-11-08 15:36:00,51.3,30.0,30.23,SSW,199,2.0,13.0,44,0.00,,,0.01,meteohub,2013-11-08 21:36:00,
2013-11-08 15:41:00,51.1,30.6,30.23,WSW,243,5.0,12.0,45,0.00,,,0.01,meteohub,2013-11-08 21:41:00,
2013-11-08 15:46:00,50.7,29.1,30.23,South,189,4.0,14.0,43,0.00,,,0.01,meteohub,2013-11-08 21:46:00,
2013-11-08 15:51:00,50.5,30.0,30.23,SSW,209,4.0,14.0,45,0.00,,,0.01,meteohub,2013-11-08 21:51:00,
2013-11-08 15:56:00,50.5,29.5,30.22,SSW,207,5.0,14.0,44,0.00,,,0.01,meteohub,2013-11-08 21:56:00,
2013-11-08 16:01:00,50.4,30.4,30.22,South,178,3.0,11.0,46,0.00,,,0.01,meteohub,2013-11-08 22:01:00,
2013-11-08 16:06:00,50.4,30.4,30.22,SSW,192,3.0,10.0,46,0.00,,,0.01,meteohub,2013-11-08 22:06:00,
2013-11-08 16:11:00,50.2,30.2,30.22,SSE,147,1.0,10.0,46,0.00,,,0.01,meteohub,2013-11-08 22:11:00,
2013-11-08 16:16:00,50.0,30.6,30.22,SSE,153,4.0,10.0,47,0.00,,,0.01,meteohub,2013-11-08 22:16:00,
2013-11-08 16:22:00,49.8,30.4,30.21,SSW,196,4.0,10.0,47,0.00,,,0.01,meteohub,2013-11-08 22:22:00,
2013-11-08 16:27:00,49.8,30.9,30.22,South,177,1.0,8.0,48,0.00,,,0.01,meteohub,2013-11-08 22:27:00,
2013-11-08 16:32:00,49.6,30.7,30.22,South,187,8.0,8.0,48,0.00,,,0.01,meteohub,2013-11-08 22:32:00,
2013-11-08 16:37:00,49.6,31.3,30.21,South,180,4.0,10.0,49,0.00,,,0.01,meteohub,2013-11-08 22:37:00,
2013-11-08 16:42:00,49.5,31.1,30.21,SE,142,4.0,10.0,49,0.00,,,0.01,meteohub,2013-11-08 22:42:00,
2013-11-08 16:47:00,49.5,31.1,30.21,SSE,156,5.0,10.0,49,0.00,,,0.01,meteohub,2013-11-08 22:47:00,
2013-11-08 16:52:00,49.1,30.7,30.21,SSE,167,4.0,12.0,49,0.00,,,0.01,meteohub,2013-11-08 22:52:00,
2013-11-08 16:57:00,48.9,30.0,30.20,SE,144,9.0,12.0,48,0.00,,,0.01,meteohub,2013-11-08 22:57:00,
2013-11-08 17:02:00,48.7,29.8,30.20,SSW,213,5.0,12.0,48,0.00,,,0.01,meteohub,2013-11-08 23:02:00,
2013-11-08 17:07:00,48.6,30.2,30.20,SSW,193,2.0,11.0,49,0.00,,,0.01,meteohub,2013-11-08 23:07:00,
2013-11-08 17:12:00,48.4,30.0,30.20,SSW,197,7.0,11.0,49,0.00,,,0.01,meteohub,2013-11-08 23:12:00,
2013-11-08 17:17:00,48.4,30.6,30.19,South,188,8.0,11.0,50,0.00,,,0.01,meteohub,2013-11-08 23:17:00,
2013-11-08 17:22:00,48.0,30.2,30.19,South,178,2.0,11.0,50,0.00,,,0.01,meteohub,2013-11-08 23:22:00,
2013-11-08 17:27:00,47.8,30.6,30.19,SSE,166,4.0,10.0,51,0.00,,,0.01,meteohub,2013-11-08 23:27:00,
2013-11-08 17:32:00,47.8,30.6,30.19,South,183,5.0,10.0,51,0.00,,,0.01,meteohub,2013-11-08 23:32:00,
2013-11-08 17:37:00,47.7,30.9,30.19,South,178,6.0,10.0,52,0.00,,,0.01,meteohub,2013-11-08 23:37:00,
2013-11-08 17:42:00,47.5,30.7,30.19,South,175,4.0,10.0,52,0.00,,,0.01,meteohub,2013-11-08 23:42:00,
2013-11-08 17:47:00,47.3,30.6,30.19,SSE,163,6.0,9.0,52,0.00,,,0.01,meteohub,2013-11-08 23:47:00,
2013-11-08 17:52:00,47.1,30.9,30.19,SSE,163,4.0,8.0,53,0.00,,,0.01,meteohub,2013-11-08 23:52:00,
2013-11-08 17:57:00,46.9,31.1,30.19,South,175,4.0,8.0,54,0.00,,,0.01,meteohub,2013-11-08 23:57:00,
2013-11-08 18:02:00,46.9,31.1,30.19,South,184,3.0,11.0,54,0.00,,,0.01,meteohub,2013-11-09 00:02:00,
2013-11-08 18:07:00,46.8,30.9,30.18,SSE,166,5.0,11.0,54,0.00,,,0.01,meteohub,2013-11-09 00:07:00,
2013-11-08 18:12:00,46.8,30.9,30.18,SW,219,8.0,11.0,54,0.00,,,0.01,meteohub,2013-11-09 00:12:00,
2013-11-08 18:17:00,46.8,30.9,30.18,SSE,158,4.0,10.0,54,0.00,,,0.01,meteohub,2013-11-09 00:17:00,
2013-11-08 18:22:00,46.6,30.7,30.19,SW,217,2.0,10.0,54,0.00,,,0.01,meteohub,2013-11-09 00:22:00,
2013-11-08 18:27:00,46.6,31.3,30.18,South,182,6.0,10.0,55,0.00,,,0.01,meteohub,2013-11-09 00:27:00,
2013-11-08 18:32:00,46.4,31.1,30.18,South,183,4.0,10.0,55,0.00,,,0.01,meteohub,2013-11-09 00:32:00,
2013-11-08 18:37:00,46.2,30.9,30.18,South,188,1.0,10.0,55,0.00,,,0.01,meteohub,2013-11-09 00:37:00,
2013-11-08 18:42:00,46.2,30.9,30.18,South,179,4.0,10.0,55,0.00,,,0.01,meteohub,2013-11-09 00:42:00,
2013-11-08 18:47:00,46.2,30.9,30.18,SSE,155,5.0,10.0,55,0.00,,,0.01,meteohub,2013-11-09 00:47:00,
2013-11-08 18:52:00,46.2,30.9,30.18,South,187,0.0,10.0,55,0.00,,,0.01,meteohub,2013-11-09 00:52:00,
2013-11-08 18:57:00,46.2,30.9,30.17,South,169,2.0,10.0,55,0.00,,,0.01,meteohub,2013-11-09 00:57:00,
2013-11-08 19:02:00,46.2,31.5,30.18,SSE,162,3.0,10.0,56,0.00,,,0.01,meteohub,2013-11-09 01:02:00,
2013-11-08 19:07:00,46.2,31.5,30.17,South,191,2.0,10.0,56,0.00,,,0.01,meteohub,2013-11-09 01:07:00,
2013-11-08 19:12:00,46.2,31.5,30.17,South,180,5.0,11.0,56,0.00,,,0.01,meteohub,2013-11-09 01:12:00,
2013-11-08 19:17:00,46.2,31.5,30.17,South,184,1.0,11.0,56,0.00,,,0.01,meteohub,2013-11-09 01:17:00,
2013-11-08 19:22:00,46.4,31.6,30.17,SSW,207,4.0,12.0,56,0.00,,,0.01,meteohub,2013-11-09 01:22:00,
2013-11-08 19:27:00,46.6,31.6,30.17,SSW,199,6.0,12.0,56,0.00,,,0.01,meteohub,2013-11-09 01:27:00,
2013-11-08 19:32:00,46.6,31.6,30.17,SSW,203,1.0,12.0,56,0.00,,,0.01,meteohub,2013-11-09 01:32:00,
2013-11-08 19:37:00,46.6,31.3,30.17,SE,144,2.0,11.0,55,0.00,,,0.01,meteohub,2013-11-09 01:37:00,
2013-11-08 19:42:00,46.8,31.5,30.16,South,184,5.0,11.0,55,0.00,,,0.01,meteohub,2013-11-09 01:42:00,
2013-11-08 19:47:00,46.8,31.5,30.16,South,177,10.0,13.0,55,0.00,,,0.01,meteohub,2013-11-09 01:47:00,
2013-11-08 19:52:00,46.8,30.9,30.15,South,175,5.0,13.0,54,0.00,,,0.01,meteohub,2013-11-09 01:52:00,
2013-11-08 19:57:00,46.9,31.1,30.15,SSE,158,6.0,14.0,54,0.00,,,0.01,meteohub,2013-11-09 01:57:00,
2013-11-08 20:02:00,46.9,30.7,30.15,South,189,10.0,14.0,53,0.00,,,0.01,meteohub,2013-11-09 02:02:00,
2013-11-08 20:07:00,47.1,30.4,30.15,SW,218,4.0,14.0,52,0.00,,,0.01,meteohub,2013-11-09 02:07:00,
2013-11-08 20:12:00,47.1,30.4,30.15,SW,217,4.0,14.0,52,0.00,,,0.01,meteohub,2013-11-09 02:12:00,
2013-11-08 20:17:00,47.1,30.4,30.15,South,185,4.0,14.0,52,0.00,,,0.01,meteohub,2013-11-09 02:17:00,
2013-11-08 20:22:00,47.1,30.4,30.15,SSW,198,7.0,19.0,52,0.00,,,0.01,meteohub,2013-11-09 02:22:00,
2013-11-08 20:27:00,47.1,30.4,30.15,SSW,212,6.0,19.0,52,0.00,,,0.01,meteohub,2013-11-09 02:27:00,
2013-11-08 20:32:00,47.1,30.4,30.15,SSW,212,5.0,14.0,52,0.00,,,0.01,meteohub,2013-11-09 02:32:00,
2013-11-08 20:37:00,47.1,30.4,30.15,SSW,199,7.0,14.0,52,0.00,,,0.01,meteohub,2013-11-09 02:37:00,
2013-11-08 20:42:00,47.1,30.4,30.15,South,182,7.0,18.0,52,0.00,,,0.01,meteohub,2013-11-09 02:42:00,
2013-11-08 20:47:00,47.1,30.4,30.15,SSW,200,5.0,18.0,52,0.00,,,0.01,meteohub,2013-11-09 02:47:00,
2013-11-08 20:52:00,47.3,30.6,30.15,SW,215,10.0,18.0,52,0.00,,,0.01,meteohub,2013-11-09 02:52:00,
2013-11-08 20:57:00,47.3,30.6,30.15,South,182,8.0,18.0,52,0.00,,,0.01,meteohub,2013-11-09 02:57:00,
2013-11-08 21:02:00,47.3,30.6,30.14,South,188,7.0,19.0,52,0.00,,,0.01,meteohub,2013-11-09 03:02:00,
2013-11-08 21:07:00,47.1,30.4,30.14,SSW,192,9.0,19.0,52,0.00,,,0.01,meteohub,2013-11-09 03:07:00,
2013-11-08 21:13:00,47.1,30.4,30.15,SSW,209,8.0,19.0,52,0.00,,,0.01,meteohub,2013-11-09 03:13:00,
2013-11-08 21:18:00,47.1,30.9,30.15,South,178,8.0,18.0,53,0.00,,,0.01,meteohub,2013-11-09 03:18:00,
2013-11-08 21:23:00,46.9,30.7,30.14,SSW,202,7.0,18.0,53,0.00,,,0.01,meteohub,2013-11-09 03:23:00,
2013-11-08 21:28:00,46.9,30.7,30.14,SSW,202,8.0,19.0,53,0.00,,,0.01,meteohub,2013-11-09 03:28:00,
2013-11-08 21:33:00,46.8,30.6,30.14,South,173,11.0,19.0,53,0.00,,,0.01,meteohub,2013-11-09 03:33:00,
2013-11-08 21:38:00,46.6,30.4,30.13,South,190,13.0,19.0,53,0.00,,,0.01,meteohub,2013-11-09 03:38:00,
2013-11-08 21:43:00,46.4,30.2,30.12,SSW,192,10.0,19.0,53,0.00,,,0.01,meteohub,2013-11-09 03:43:00,
2013-11-08 21:48:00,46.4,30.2,30.12,SE,144,2.0,19.0,53,0.00,,,0.01,meteohub,2013-11-09 03:48:00,
2013-11-08 21:53:00,46.2,30.6,30.13,South,191,12.0,20.0,54,0.00,,,0.01,meteohub,2013-11-09 03:53:00,
2013-11-08 21:58:00,46.2,30.6,30.13,SSW,198,9.0,20.0,54,0.00,,,0.01,meteohub,2013-11-09 03:58:00,
2013-11-08 22:03:00,46.2,30.6,30.13,SSW,194,5.0,20.0,54,0.00,,,0.01,meteohub,2013-11-09 04:03:00,
2013-11-08 22:08:00,46.6,30.4,30.13,South,175,6.0,22.0,53,0.00,,,0.01,meteohub,2013-11-09 04:08:00,
2013-11-08 22:13:00,46.6,30.4,30.12,South,181,7.0,22.0,53,0.00,,,0.01,meteohub,2013-11-09 04:13:00,
2013-11-08 22:18:00,46.6,30.4,30.12,SSW,197,13.0,22.0,53,0.00,,,0.01,meteohub,2013-11-09 04:18:00,
2013-11-08 22:23:00,46.8,30.0,30.12,South,174,8.0,21.0,52,0.00,,,0.01,meteohub,2013-11-09 04:23:00,
2013-11-08 22:28:00,46.6,29.8,30.12,South,169,9.0,21.0,52,0.00,,,0.01,meteohub,2013-11-09 04:28:00,
2013-11-08 22:33:00,46.6,29.8,30.12,SSW,209,10.0,21.0,52,0.00,,,0.01,meteohub,2013-11-09 04:33:00,
2013-11-08 22:38:00,46.6,30.4,30.11,South,182,0.0,20.0,53,0.00,,,0.01,meteohub,2013-11-09 04:38:00,
2013-11-08 22:44:00,46.8,30.0,30.12,SSE,163,10.0,20.0,52,0.00,,,0.01,meteohub,2013-11-09 04:44:00,
2013-11-08 22:49:00,46.8,30.0,30.11,South,177,9.0,19.0,52,0.00,,,0.01,meteohub,2013-11-09 04:49:00,
2013-11-08 22:54:00,46.8,30.6,30.11,South,175,6.0,19.0,53,0.00,,,0.01,meteohub,2013-11-09 04:54:00,
2013-11-08 22:59:00,46.8,30.6,30.11,South,187,14.0,19.0,53,0.00,,,0.01,meteohub,2013-11-09 04:59:00,
2013-11-08 23:01:00,46.8,30.0,30.10,South,190,7.0,19.0,52,0.00,,,0.01,meteohub,2013-11-09 05:01:00,
2013-11-08 23:02:00,46.8,30.0,30.10,South,180,7.0,19.0,52,0.00,,,0.01,meteohub,2013-11-09 05:02:00,
2013-11-08 23:04:00,46.8,30.6,30.10,SW,219,9.0,19.0,53,0.00,,,0.01,meteohub,2013-11-09 05:04:00,
2013-11-08 23:05:00,46.8,30.0,30.10,South,183,16.0,19.0,52,0.00,,,0.01,meteohub,2013-11-09 05:05:00,
2013-11-08 23:10:00,46.8,30.6,30.10,South,185,10.0,23.0,53,0.00,,,0.01,meteohub,2013-11-09 05:10:00,
2013-11-08 23:12:00,46.8,30.6,30.10,South,190,8.0,23.0,53,0.00,,,0.01,meteohub,2013-11-09 05:12:00,
2013-11-08 23:17:00,46.6,30.4,30.10,South,179,12.0,23.0,53,0.00,,,0.01,meteohub,2013-11-09 05:17:00,
2013-11-08 23:22:00,46.4,30.2,30.10,SSW,193,7.0,21.0,53,0.00,,,0.01,meteohub,2013-11-09 05:22:00,
2013-11-08 23:27:00,46.2,30.6,30.09,SSW,194,6.0,21.0,54,0.00,,,0.01,meteohub,2013-11-09 05:27:00,
2013-11-08 23:33:00,46.0,30.4,30.09,South,185,13.0,16.0,54,0.00,,,0.01,meteohub,2013-11-09 05:33:00,
2013-11-08 23:38:00,45.9,30.2,30.09,SSW,205,8.0,16.0,54,0.00,,,0.01,meteohub,2013-11-09 05:38:00,
2013-11-08 23:43:00,45.9,30.6,30.09,SW,214,6.0,20.0,55,0.00,,,0.01,meteohub,2013-11-09 05:43:00,
2013-11-08 23:48:00,45.7,30.4,30.09,SSE,160,5.0,20.0,55,0.00,,,0.01,meteohub,2013-11-09 05:48:00,
2013-11-08 23:53:00,45.5,30.2,30.09,South,178,8.0,20.0,55,0.00,,,0.01,meteohub,2013-11-09 05:53:00,
2013-11-08 23:58:00,45.3,30.6,30.09,SSW,208,11.0,16.0,56,0.00,,,0.01,meteohub,2013-11-09 05:58:00,